Time;durP1;ratioP1;P1;durP2;ratioP2;P2;SDS_P1;SDS_P2;PMS_P1;PMS_P2;Temp;Humidity;BMP_temperature;BMP_pressure;BME280_temperature;BME280_humidity;BME280_pressure;Samples;Min_cycle;Max_cycle;Signal;HPM_P1;HPM_P2
2023/08/05 00:02:05;;;;;;;5.10;3.57;;;19.70;99.90;;;;;;5063305;28;20193;-78
2023/08/05 00:04:38;;;;;;;6.40;3.97;;;19.80;99.90;;;;;;5097951;28;20696;-79
2023/08/05 00:07:07;;;;;;;7.23;4.53;;;19.90;99.90;;;;;;5096474;28;20251;-78
2023/08/05 00:09:34;;;;;;;8.63;5.03;;;19.90;99.90;;;;;;5083635;28;20219;-77
2023/08/05 00:12:02;;;;;;;7.63;5.20;;;20.00;99.90;;;;;;5089694;28;20213;-79
2023/08/05 00:14:29;;;;;;;8.57;4.90;;;20.00;99.90;;;;;;5062780;28;20207;-79
2023/08/05 00:16:56;;;;;;;6.77;4.83;;;20.10;99.90;;;;;;5080068;28;20238;-79
2023/08/05 00:19:23;;;;;;;5.07;4.30;;;20.00;99.90;;;;;;5087283;28;20213;-79
2023/08/05 00:21:51;;;;;;;5.80;3.90;;;20.10;99.90;;;;;;5088615;28;20221;-79
2023/08/05 00:24:18;;;;;;;7.97;3.80;;;20.10;99.90;;;;;;5067713;28;20297;-80
2023/08/05 00:26:46;;;;;;;4.20;3.37;;;20.00;99.90;;;;;;5067188;28;20214;-79
2023/08/05 00:29:14;;;;;;;5.87;3.10;;;20.00;99.90;;;;;;5087285;28;20217;-80
2023/08/05 00:31:41;;;;;;;4.13;3.43;;;20.00;99.90;;;;;;5069331;28;20204;-79
2023/08/05 00:34:09;;;;;;;5.30;3.40;;;20.00;99.90;;;;;;5084935;28;20219;-79
2023/08/05 00:36:36;;;;;;;8.27;3.67;;;19.90;99.90;;;;;;5073942;28;20575;-80
2023/08/05 00:39:04;;;;;;;3.53;3.17;;;19.80;99.90;;;;;;5059689;28;20222;-78
2023/08/05 00:41:31;;;;;;;3.97;3.33;;;19.80;99.90;;;;;;5073751;28;20692;-78
2023/08/05 00:43:58;;;;;;;3.70;3.30;;;19.70;99.90;;;;;;5060029;28;20267;-78
2023/08/05 00:46:25;;;;;;;5.57;3.00;;;19.60;99.90;;;;;;5084138;28;20230;-78
2023/08/05 00:48:53;;;;;;;5.80;4.13;;;19.50;99.90;;;;;;5079074;28;20213;-77
2023/08/05 00:51:21;;;;;;;4.00;3.50;;;19.40;99.90;;;;;;5073328;28;20519;-80
2023/08/05 00:53:48;;;;;;;3.07;2.83;;;19.40;99.90;;;;;;5084519;28;20230;-80
2023/08/05 00:56:16;;;;;;;6.03;3.13;;;19.30;99.90;;;;;;5077884;28;20233;-79
2023/08/05 00:58:44;;;;;;;3.60;2.87;;;19.30;99.90;;;;;;5080126;28;20192;-78
2023/08/05 01:01:11;;;;;;;7.17;2.77;;;19.20;99.90;;;;;;5085507;28;20274;-81
2023/08/05 01:03:42;;;;;;;3.60;2.63;;;19.20;99.90;;;;;;5065944;28;20232;-79
2023/08/05 01:06:11;;;;;;;5.20;3.20;;;19.20;99.90;;;;;;5066665;28;20217;-79
2023/08/05 01:08:39;;;;;;;7.70;3.80;;;19.10;99.90;;;;;;5068059;28;20388;-78
2023/08/05 01:11:07;;;;;;;3.60;3.20;;;19.10;99.90;;;;;;5065036;28;20203;-79
2023/08/05 01:13:36;;;;;;;4.53;3.67;;;19.10;99.90;;;;;;5065134;28;20295;-79
2023/08/05 01:16:03;;;;;;;6.47;4.13;;;19.10;99.90;;;;;;5084265;28;20286;-79
2023/08/05 01:18:33;;;;;;;7.20;4.50;;;19.10;99.90;;;;;;5063679;28;20207;-79
2023/08/05 01:21:02;;;;;;;5.97;4.27;;;19.20;99.90;;;;;;5078806;28;20293;-78
2023/08/05 01:23:40;;;;;;;4.30;3.83;;;19.20;99.90;;;;;;5061384;28;20211;-78
2023/08/05 01:26:09;;;;;;;4.57;4.17;;;19.30;99.90;;;;;;5066384;28;20210;-79
2023/08/05 01:28:37;;;;;;;7.17;3.70;;;19.30;99.90;;;;;;5074983;28;20204;-77
2023/08/05 01:31:07;;;;;;;7.90;4.13;;;19.30;99.90;;;;;;5061807;28;20260;-77
2023/08/05 01:33:35;;;;;;;4.07;3.53;;;19.30;99.90;;;;;;5081108;28;20624;-79
2023/08/05 01:36:03;;;;;;;5.37;3.23;;;19.20;99.90;;;;;;5062966;28;20282;-78
2023/08/05 01:38:30;;;;;;;5.77;3.23;;;19.20;99.90;;;;;;5072460;28;20261;-78
2023/08/05 01:40:58;;;;;;;7.70;3.13;;;19.10;99.90;;;;;;5075502;28;20267;-77
2023/08/05 01:43:25;;;;;;;4.97;3.20;;;19.10;99.90;;;;;;5062138;28;20671;-78
2023/08/05 01:45:52;;;;;;;5.97;2.90;;;19.00;99.90;;;;;;5068677;28;20212;-77
2023/08/05 01:48:20;;;;;;;3.90;3.03;;;19.00;99.90;;;;;;5090059;28;20200;-76
2023/08/05 01:50:47;;;;;;;4.87;3.20;;;18.90;99.90;;;;;;5060825;28;20556;-78
2023/08/05 01:53:15;;;;;;;6.93;2.70;;;18.80;99.90;;;;;;5078592;28;20246;-78
2023/08/05 01:55:42;;;;;;;4.33;2.40;;;18.80;99.90;;;;;;5056052;28;20232;-78
2023/08/05 01:58:09;;;;;;;7.63;3.00;;;18.80;99.90;;;;;;5076836;28;20227;-78
2023/08/05 02:00:36;;;;;;;4.30;2.60;;;18.80;99.90;;;;;;5073612;28;20203;-78
2023/08/05 02:03:03;;;;;;;8.53;3.43;;;18.80;99.90;;;;;;5076663;28;20190;-77
2023/08/05 02:05:31;;;;;;;5.20;3.80;;;18.80;99.90;;;;;;5078140;28;20215;-77
2023/08/05 02:08:00;;;;;;;5.87;3.00;;;18.80;99.90;;;;;;5073922;28;20646;-79
2023/08/05 02:10:28;;;;;;;7.83;3.73;;;18.80;99.90;;;;;;5088842;28;20193;-77
2023/08/05 02:12:55;;;;;;;6.47;3.30;;;18.80;99.90;;;;;;5059336;28;20200;-78
2023/08/05 02:15:22;;;;;;;5.10;3.80;;;18.90;99.90;;;;;;5076061;28;20218;-77
2023/08/05 02:17:49;;;;;;;6.10;4.00;;;18.90;99.90;;;;;;5065974;28;20210;-78
2023/08/05 02:20:17;;;;;;;4.93;3.33;;;18.90;99.90;;;;;;5091912;28;20225;-77
2023/08/05 02:22:47;;;;;;;4.73;3.03;;;18.80;99.90;;;;;;5052521;28;20223;-80
2023/08/05 02:25:14;;;;;;;5.50;3.73;;;18.80;99.90;;;;;;5047977;28;20197;-78
2023/08/05 02:27:41;;;;;;;5.17;3.53;;;18.90;99.90;;;;;;5091677;28;20274;-77
2023/08/05 02:30:09;;;;;;;5.10;3.20;;;18.80;99.90;;;;;;5072649;28;20252;-77
2023/08/05 02:32:37;;;;;;;4.47;3.13;;;18.80;99.90;;;;;;5073216;28;20203;-77
2023/08/05 02:35:04;;;;;;;3.83;3.00;;;18.80;99.90;;;;;;5091484;28;20198;-77
2023/08/05 02:37:31;;;;;;;4.73;3.20;;;18.80;99.90;;;;;;5070798;28;20298;-77
2023/08/05 02:39:59;;;;;;;5.17;3.60;;;18.80;99.90;;;;;;5088969;28;20200;-78
2023/08/05 02:42:26;;;;;;;4.13;3.00;;;18.80;99.90;;;;;;5079475;28;20218;-79
2023/08/05 02:44:53;;;;;;;5.77;3.57;;;18.70;99.90;;;;;;5075834;28;20216;-78
2023/08/05 02:47:20;;;;;;;4.20;3.10;;;18.70;99.90;;;;;;5074943;28;20217;-78
2023/08/05 02:49:48;;;;;;;4.43;3.33;;;18.70;99.90;;;;;;5067822;28;20244;-77
2023/08/05 02:52:15;;;;;;;7.50;4.17;;;18.70;99.90;;;;;;5052040;28;20625;-78
2023/08/05 02:54:42;;;;;;;7.20;4.10;;;18.60;99.90;;;;;;5092771;28;20206;-77
2023/08/05 02:57:09;;;;;;;5.20;4.37;;;18.60;99.90;;;;;;5090798;28;20222;-79
2023/08/05 02:59:37;;;;;;;7.53;4.90;;;18.60;99.90;;;;;;5077506;28;20204;-77
2023/08/05 03:02:04;;;;;;;7.63;5.20;;;18.60;99.90;;;;;;5058916;28;20269;-78
2023/08/05 03:04:32;;;;;;;6.63;4.83;;;18.60;99.90;;;;;;5050518;28;20199;-79
2023/08/05 03:06:59;;;;;;;11.57;5.67;;;18.60;99.90;;;;;;5070964;28;20207;-77
2023/08/05 03:09:26;;;;;;;6.17;4.87;;;18.60;99.90;;;;;;5057577;28;20671;-79
2023/08/05 03:11:54;;;;;;;6.73;5.00;;;18.70;99.90;;;;;;5057696;28;20204;-78
2023/08/05 03:14:21;;;;;;;7.60;5.43;;;18.70;99.90;;;;;;5051705;28;20299;-79
2023/08/05 03:16:49;;;;;;;11.07;6.73;;;18.70;99.90;;;;;;5056686;28;20320;-78
2023/08/05 03:19:19;;;;;;;6.77;5.17;;;18.70;99.90;;;;;;5055690;28;20273;-80
2023/08/05 03:21:49;;;;;;;9.40;6.27;;;18.70;99.90;;;;;;5059658;28;20203;-78
2023/08/05 03:24:18;;;;;;;5.83;5.23;;;18.70;99.90;;;;;;5049377;28;20269;-79
2023/08/05 03:26:50;;;;;;;8.60;6.30;;;18.70;99.90;;;;;;5061082;28;20230;-78
2023/08/05 03:29:17;;;;;;;11.93;6.57;;;18.70;99.90;;;;;;5061822;28;20259;-78
2023/08/05 03:31:48;;;;;;;10.67;5.97;;;18.70;99.90;;;;;;5055819;28;20579;-78
2023/08/05 03:34:18;;;;;;;7.63;5.57;;;18.70;99.90;;;;;;5061297;28;20234;-78
2023/08/05 03:36:46;;;;;;;9.57;5.97;;;18.70;99.90;;;;;;5075181;28;20561;-79
2023/08/05 03:39:17;;;;;;;8.07;6.10;;;18.70;99.90;;;;;;5055460;28;20277;-80
2023/08/05 03:41:45;;;;;;;11.67;5.77;;;18.70;99.90;;;;;;5056268;28;20611;-77
2023/08/05 03:44:13;;;;;;;7.33;5.90;;;18.70;99.90;;;;;;5068303;28;20208;-78
2023/08/05 03:46:40;;;;;;;6.47;5.30;;;18.70;99.90;;;;;;5063831;28;20235;-78
2023/08/05 03:49:08;;;;;;;8.20;5.53;;;18.70;99.90;;;;;;5082079;28;20274;-78
2023/08/05 03:51:35;;;;;;;9.03;6.33;;;18.80;99.90;;;;;;5068152;28;20222;-79
2023/08/05 03:54:06;;;;;;;9.30;6.20;;;18.80;99.90;;;;;;5074517;28;20281;-77
2023/08/05 03:56:33;;;;;;;10.47;6.70;;;18.80;99.90;;;;;;5061919;28;20743;-79
2023/08/05 03:59:02;;;;;;;9.03;7.33;;;18.80;99.90;;;;;;5060367;28;20536;-78
2023/08/05 04:01:32;;;;;;;9.73;6.80;;;18.80;99.90;;;;;;5081607;28;20228;-79
2023/08/05 04:04:00;;;;;;;9.40;6.47;;;18.80;99.90;;;;;;5060284;28;20209;-77
2023/08/05 04:06:28;;;;;;;10.00;7.20;;;18.90;99.90;;;;;;5071708;28;20211;-79
2023/08/05 04:08:57;;;;;;;10.17;6.97;;;18.90;99.90;;;;;;5074020;28;20234;-78
2023/08/05 04:11:26;;;;;;;8.60;7.37;;;18.90;99.90;;;;;;5059391;28;20238;-78
2023/08/05 04:13:58;;;;;;;9.50;7.57;;;18.90;99.90;;;;;;5069283;28;20209;-77
2023/08/05 04:16:27;;;;;;;8.27;7.27;;;18.90;99.90;;;;;;5063581;28;20246;-78
2023/08/05 04:18:54;;;;;;;10.83;7.80;;;19.00;99.90;;;;;;5093393;28;20199;-78
2023/08/05 04:21:25;;;;;;;9.50;7.10;;;19.00;99.90;;;;;;5065969;28;20553;-78
2023/08/05 04:23:54;;;;;;;10.17;7.83;;;19.00;99.90;;;;;;5080307;28;20226;-78
2023/08/05 04:26:21;;;;;;;10.00;8.03;;;19.00;99.90;;;;;;5094753;28;20528;-79
2023/08/05 04:28:48;;;;;;;8.63;7.20;;;19.00;99.90;;;;;;5063774;28;20205;-78
2023/08/05 04:31:16;;;;;;;10.57;6.97;;;19.00;99.90;;;;;;5075722;28;20299;-80
2023/08/05 04:33:44;;;;;;;9.27;7.40;;;18.90;99.90;;;;;;5084947;28;20253;-78
2023/08/05 04:36:11;;;;;;;7.33;6.53;;;18.90;99.90;;;;;;5078761;28;20234;-78
2023/08/05 04:38:41;;;;;;;7.13;5.47;;;18.90;99.90;;;;;;5073992;28;20506;-78
2023/08/05 04:41:10;;;;;;;7.77;5.97;;;18.90;99.90;;;;;;5071476;28;20209;-78
2023/08/05 04:43:38;;;;;;;7.20;5.50;;;18.80;99.90;;;;;;5075703;28;20654;-77
2023/08/05 04:46:05;;;;;;;6.53;5.43;;;18.80;99.90;;;;;;5097091;28;20197;-78
2023/08/05 04:48:32;;;;;;;6.23;5.57;;;18.80;99.90;;;;;;5057505;28;20208;-78
2023/08/05 04:50:59;;;;;;;6.23;5.10;;;18.80;99.90;;;;;;5074591;28;20194;-77
2023/08/05 04:53:27;;;;;;;6.90;5.37;;;18.70;99.90;;;;;;5079892;28;20238;-79
2023/08/05 04:55:54;;;;;;;6.37;5.47;;;18.70;99.90;;;;;;5073294;28;20567;-77
2023/08/05 04:58:21;;;;;;;5.50;4.97;;;18.70;99.90;;;;;;5080714;28;20213;-78
2023/08/05 05:00:48;;;;;;;6.80;5.63;;;18.70;99.90;;;;;;5087899;28;20208;-79
2023/08/05 05:03:16;;;;;;;9.23;5.20;;;18.60;99.90;;;;;;5062204;28;20212;-78
2023/08/05 05:05:44;;;;;;;6.27;5.37;;;18.60;99.90;;;;;;5074373;28;20192;-78
2023/08/05 05:08:11;;;;;;;6.67;5.27;;;18.60;99.90;;;;;;5081582;28;20199;-78
2023/08/05 05:10:46;;;;;;;5.27;4.83;;;18.60;99.90;;;;;;5078306;28;20628;-79
2023/08/05 05:13:13;;;;;;;5.70;5.10;;;18.60;99.90;;;;;;5055588;28;20214;-79
2023/08/05 05:15:40;;;;;;;4.90;4.50;;;18.60;99.90;;;;;;5082413;28;20217;-77
2023/08/05 05:18:08;;;;;;;5.57;4.60;;;18.60;99.90;;;;;;5073210;28;20232;-79
2023/08/05 05:20:35;;;;;;;5.60;4.90;;;18.60;99.90;;;;;;5053819;28;20205;-77
2023/08/05 05:23:02;;;;;;;7.27;4.93;;;18.60;99.90;;;;;;5074992;28;20194;-79
2023/08/05 05:25:29;;;;;;;5.13;4.40;;;18.60;99.90;;;;;;5078689;28;20225;-78
2023/08/05 05:27:57;;;;;;;4.43;4.03;;;18.60;99.90;;;;;;5071923;28;20207;-79
2023/08/05 05:30:24;;;;;;;5.10;4.60;;;18.60;99.90;;;;;;5089543;28;20229;-78
2023/08/05 05:32:52;;;;;;;4.23;3.83;;;18.60;99.90;;;;;;5063968;28;20290;-78
2023/08/05 05:35:19;;;;;;;6.87;4.90;;;18.60;99.90;;;;;;5073868;28;20204;-79
2023/08/05 05:37:46;;;;;;;4.57;3.80;;;18.60;99.90;;;;;;5055680;28;20226;-78
2023/08/05 05:40:14;;;;;;;7.13;4.97;;;18.60;99.90;;;;;;5079902;28;20250;-79
2023/08/05 05:42:42;;;;;;;6.63;5.43;;;18.60;99.90;;;;;;5074587;28;20254;-78
2023/08/05 05:45:09;;;;;;;4.90;4.40;;;18.60;99.90;;;;;;5071864;28;20205;-78
2023/08/05 05:47:40;;;;;;;5.97;5.23;;;18.60;99.90;;;;;;5060458;28;20202;-80
2023/08/05 05:50:08;;;;;;;7.83;6.00;;;18.60;99.90;;;;;;5070923;28;20203;-79
2023/08/05 05:52:35;;;;;;;8.40;5.83;;;18.60;99.90;;;;;;5088600;28;20225;-79
2023/08/05 05:55:03;;;;;;;6.30;5.70;;;18.60;99.90;;;;;;5083471;28;20215;-80
2023/08/05 05:57:30;;;;;;;5.37;4.73;;;18.60;99.90;;;;;;5072773;28;20211;-79
2023/08/05 05:59:57;;;;;;;6.80;5.10;;;18.60;99.90;;;;;;5090495;28;20205;-79
2023/08/05 06:02:25;;;;;;;7.00;4.73;;;18.60;99.90;;;;;;5073229;28;20306;-78
2023/08/05 06:04:56;;;;;;;5.30;4.73;;;18.60;99.90;;;;;;5070998;28;20208;-78
2023/08/05 06:07:23;;;;;;;6.03;5.00;;;18.60;99.90;;;;;;5052244;28;20231;-78
2023/08/05 06:09:50;;;;;;;5.97;4.40;;;18.60;99.90;;;;;;5074487;28;20226;-80
2023/08/05 06:12:18;;;;;;;5.67;4.90;;;18.60;99.90;;;;;;5074626;28;20207;-79
2023/08/05 06:14:45;;;;;;;6.87;5.20;;;18.60;99.90;;;;;;5065269;28;20208;-79
2023/08/05 06:17:13;;;;;;;5.77;5.27;;;18.60;99.90;;;;;;5075346;28;20701;-79
2023/08/05 06:19:40;;;;;;;7.30;5.43;;;18.60;99.90;;;;;;5057195;28;20215;-79
2023/08/05 06:22:07;;;;;;;5.77;5.17;;;18.70;99.90;;;;;;5062245;28;20202;-78
2023/08/05 06:24:35;;;;;;;6.83;4.83;;;18.60;99.90;;;;;;5064159;28;20195;-80
2023/08/05 06:27:02;;;;;;;4.90;4.40;;;18.70;99.90;;;;;;5074624;28;20215;-81
2023/08/05 06:29:30;;;;;;;5.67;4.37;;;18.70;99.90;;;;;;5063281;28;20202;-78
2023/08/05 06:31:57;;;;;;;4.93;4.43;;;18.70;99.90;;;;;;5054571;28;20207;-79
2023/08/05 06:34:24;;;;;;;4.60;3.63;;;18.70;99.90;;;;;;5074096;28;20211;-80
2023/08/05 06:36:51;;;;;;;6.13;3.03;;;18.70;99.90;;;;;;5072019;28;20215;-79
2023/08/05 06:39:19;;;;;;;2.57;1.43;;;18.70;99.90;;;;;;5058644;28;20626;-79
2023/08/05 06:41:46;;;;;;;1.13;1.03;;;18.70;99.90;;;;;;5063054;28;20555;-78
2023/08/05 06:44:13;;;;;;;1.23;1.10;;;18.60;99.90;;;;;;5082446;28;20275;-81
2023/08/05 06:46:43;;;;;;;1.53;1.00;;;18.60;99.90;;;;;;5056345;28;20594;-79
2023/08/05 06:49:11;;;;;;;1.17;0.90;;;18.60;99.90;;;;;;5064216;28;20239;-79
2023/08/05 06:51:38;;;;;;;1.10;0.80;;;18.60;99.90;;;;;;5055892;28;20218;-79
2023/08/05 06:54:10;;;;;;;0.93;0.87;;;18.60;99.90;;;;;;5061813;28;20242;-78
2023/08/05 06:56:38;;;;;;;1.00;0.80;;;18.60;99.90;;;;;;5075871;28;20243;-78
2023/08/05 06:59:05;;;;;;;1.03;0.80;;;18.50;99.90;;;;;;5074043;28;20186;-80
2023/08/05 07:01:32;;;;;;;0.67;0.60;;;18.60;99.90;;;;;;5068526;28;20300;-80
2023/08/05 07:04:00;;;;;;;1.80;0.60;;;18.60;99.90;;;;;;5078201;28;20209;-79
2023/08/05 07:06:28;;;;;;;2.63;0.73;;;18.60;99.90;;;;;;5078698;28;20200;-78
2023/08/05 07:08:55;;;;;;;0.73;0.73;;;18.60;99.90;;;;;;5061658;28;20221;-79
2023/08/05 07:11:22;;;;;;;0.67;0.60;;;18.60;99.90;;;;;;5088922;28;20224;-79
2023/08/05 07:13:49;;;;;;;0.53;0.53;;;18.60;99.90;;;;;;5054383;28;20203;-78
2023/08/05 07:16:17;;;;;;;1.90;1.13;;;18.60;99.90;;;;;;5076992;28;20216;-78
2023/08/05 07:18:44;;;;;;;1.93;0.73;;;18.60;99.90;;;;;;5076963;28;20223;-81
2023/08/05 07:21:12;;;;;;;1.10;1.00;;;18.60;99.90;;;;;;5063476;28;20266;-81
2023/08/05 07:23:39;;;;;;;3.80;1.77;;;18.60;99.90;;;;;;5074944;28;20196;-79
2023/08/05 07:26:06;;;;;;;4.50;1.90;;;18.60;99.90;;;;;;5083063;28;20634;-81
2023/08/05 07:28:33;;;;;;;1.93;1.60;;;18.60;99.90;;;;;;5072374;28;20225;-80
2023/08/05 07:31:05;;;;;;;3.13;2.03;;;18.60;99.90;;;;;;5073495;28;20246;-80
2023/08/05 07:33:32;;;;;;;2.37;1.70;;;18.70;99.90;;;;;;5055876;28;20235;-80
2023/08/05 07:36:13;;;;;;;1.90;1.80;;;18.70;99.90;;;;;;5071626;28;20209;-79
2023/08/05 07:38:42;;;;;;;3.20;1.50;;;18.80;99.90;;;;;;5057326;28;20599;-80
2023/08/05 07:41:15;;;;;;;1.60;0.90;;;18.80;99.90;;;;;;5067554;28;20196;-79
2023/08/05 07:43:43;;;;;;;1.23;1.10;;;18.80;99.90;;;;;;5078725;28;20228;-78
2023/08/05 07:46:12;;;;;;;3.80;1.17;;;18.80;99.90;;;;;;5076022;28;20199;-80
2023/08/05 07:48:40;;;;;;;1.27;1.03;;;18.80;99.90;;;;;;5071949;28;20204;-80
2023/08/05 07:51:08;;;;;;;1.30;1.03;;;18.90;99.90;;;;;;5060647;28;20207;-79
2023/08/05 07:53:39;;;;;;;1.57;1.17;;;18.90;99.90;;;;;;5054364;28;20204;-80
2023/08/05 07:56:11;;;;;;;1.10;1.00;;;18.90;99.90;;;;;;5068873;28;20254;-80
2023/08/05 07:58:40;;;;;;;1.13;0.90;;;18.90;99.90;;;;;;5056736;28;20224;-78
2023/08/05 08:01:08;;;;;;;0.70;0.70;;;19.00;99.90;;;;;;5059368;28;20201;-79
2023/08/05 08:03:35;;;;;;;2.50;1.10;;;19.10;99.90;;;;;;5074189;28;20222;-80
2023/08/05 08:06:03;;;;;;;1.10;0.60;;;19.10;99.90;;;;;;5064498;28;20212;-81
2023/08/05 08:08:31;;;;;;;0.50;0.50;;;19.10;99.90;;;;;;5057265;28;20247;-81
2023/08/05 08:11:01;;;;;;;2.63;0.60;;;19.20;99.90;;;;;;5063810;28;20228;-81
2023/08/05 08:13:28;;;;;;;1.50;0.80;;;19.40;99.90;;;;;;5059914;28;20211;-81
2023/08/05 08:15:55;;;;;;;2.67;0.60;;;19.50;99.90;;;;;;5072291;28;20200;-81
2023/08/05 08:18:23;;;;;;;2.80;0.70;;;19.60;99.90;;;;;;5068882;28;20227;-81
2023/08/05 08:20:51;;;;;;;0.63;0.63;;;19.60;99.90;;;;;;5070267;28;20262;-81
2023/08/05 08:23:19;;;;;;;1.23;0.73;;;19.70;99.90;;;;;;5073968;28;20232;-81
2023/08/05 08:25:46;;;;;;;0.87;0.80;;;19.70;99.90;;;;;;5057309;28;20244;-81
2023/08/05 08:28:13;;;;;;;4.87;0.80;;;19.80;99.90;;;;;;5073094;28;20251;-81
2023/08/05 08:30:54;;;;;;;0.50;0.47;;;19.90;99.90;;;;;;5069062;28;20297;-81
2023/08/05 08:33:24;;;;;;;0.90;0.47;;;20.00;99.30;;;;;;5077974;28;20215;-79
2023/08/05 08:35:52;;;;;;;0.70;0.70;;;20.10;98.80;;;;;;5076028;28;20208;-80
2023/08/05 08:38:25;;;;;;;0.77;0.60;;;20.10;98.40;;;;;;5055193;28;20243;-81
2023/08/05 08:40:57;;;;;;;2.43;1.13;;;20.20;98.90;;;;;;5054115;28;20258;-82
2023/08/05 08:43:26;;;;;;;4.40;1.30;;;20.20;98.90;;;;;;5058055;28;20205;-82
2023/08/05 08:45:55;;;;;;;1.07;0.60;;;20.30;97.90;;;;;;5059656;28;20228;-80
2023/08/05 08:48:24;;;;;;;2.00;1.10;;;20.40;97.80;;;;;;5072654;28;20237;-79
2023/08/05 08:50:55;;;;;;;3.30;1.87;;;20.40;97.30;;;;;;5071346;28;20662;-80
2023/08/05 08:53:23;;;;;;;2.80;1.93;;;20.30;97.40;;;;;;5076830;28;20223;-81
2023/08/05 08:55:51;;;;;;;1.50;1.40;;;20.30;98.40;;;;;;5059669;28;20369;-81
2023/08/05 08:58:19;;;;;;;1.60;1.40;;;20.30;98.80;;;;;;5086307;28;20262;-80
2023/08/05 09:00:47;;;;;;;3.43;1.30;;;20.40;98.60;;;;;;5074206;28;20223;-79
2023/08/05 09:03:15;;;;;;;2.97;1.87;;;20.30;98.40;;;;;;5074631;28;20200;-80
2023/08/05 09:05:49;;;;;;;1.00;1.00;;;20.30;98.20;;;;;;5066415;28;20613;-81
2023/08/05 09:08:17;;;;;;;2.43;1.17;;;20.30;98.30;;;;;;5053312;28;20209;-79
2023/08/05 09:10:44;;;;;;;1.67;1.57;;;20.30;98.00;;;;;;5067786;28;20232;-79
2023/08/05 09:13:16;;;;;;;1.63;0.93;;;20.30;98.10;;;;;;5075057;28;20205;-80
2023/08/05 09:15:45;;;;;;;1.10;0.93;;;20.30;98.30;;;;;;5073587;28;20519;-81
2023/08/05 09:18:13;;;;;;;1.80;1.10;;;20.30;98.20;;;;;;5073844;28;20288;-80
2023/08/05 09:20:40;;;;;;;3.00;1.27;;;20.30;98.40;;;;;;5054593;28;20205;-82
2023/08/05 09:23:10;;;;;;;1.67;0.93;;;20.30;98.50;;;;;;5053252;28;20546;-81
2023/08/05 09:25:45;;;;;;;2.43;1.47;;;20.30;98.60;;;;;;5070024;28;20637;-80
2023/08/05 09:28:13;;;;;;;4.83;2.13;;;20.30;99.10;;;;;;5078392;28;20715;-80
2023/08/05 09:30:40;;;;;;;3.53;2.70;;;20.20;99.10;;;;;;5068741;28;20295;-79
2023/08/05 09:33:08;;;;;;;3.40;1.43;;;20.20;99.90;;;;;;5061623;28;20636;-80
2023/08/05 09:35:36;;;;;;;2.03;1.63;;;20.10;99.50;;;;;;5076296;28;20205;-80
2023/08/05 09:38:10;;;;;;;4.20;3.27;;;20.00;99.50;;;;;;5069754;28;20542;-80
2023/08/05 09:40:41;;;;;;;3.57;3.27;;;19.90;99.80;;;;;;5060465;28;20224;-80
2023/08/05 09:43:08;;;;;;;5.73;3.37;;;19.90;99.90;;;;;;5081395;28;20196;-79
2023/08/05 09:45:37;;;;;;;3.33;2.60;;;19.80;99.90;;;;;;5081532;28;20195;-80
2023/08/05 09:48:09;;;;;;;4.10;2.73;;;19.70;99.90;;;;;;5081331;28;20613;-79
2023/08/05 09:50:40;;;;;;;5.67;2.90;;;19.80;99.90;;;;;;5048486;28;20215;-81
2023/08/05 09:53:13;;;;;;;2.37;2.17;;;19.80;99.90;;;;;;5080854;28;20229;-79
2023/08/05 09:55:43;;;;;;;2.60;2.23;;;19.90;99.90;;;;;;5062319;28;20347;-80
2023/08/05 09:58:13;;;;;;;3.17;2.83;;;19.90;99.90;;;;;;5046884;28;20229;-79
2023/08/05 10:00:43;;;;;;;3.50;2.77;;;19.90;99.90;;;;;;5064273;28;20207;-79
2023/08/05 10:03:13;;;;;;;4.03;2.83;;;20.00;99.90;;;;;;5079316;28;20201;-81
2023/08/05 10:05:45;;;;;;;3.30;3.00;;;20.10;99.90;;;;;;5077283;28;20761;-81
2023/08/05 10:08:16;;;;;;;4.53;2.83;;;20.20;99.90;;;;;;5059485;28;20300;-79
2023/08/05 10:10:47;;;;;;;2.77;2.47;;;20.30;99.90;;;;;;5062313;28;20219;-81
2023/08/05 10:13:20;;;;;;;3.13;2.80;;;20.40;99.90;;;;;;5079402;28;20615;-81
2023/08/05 10:15:51;;;;;;;2.10;1.90;;;20.50;99.90;;;;;;5078922;28;20303;-81
2023/08/05 10:18:19;;;;;;;1.53;1.40;;;20.50;99.90;;;;;;5071885;28;20223;-81
2023/08/05 10:20:51;;;;;;;2.30;1.27;;;20.60;99.90;;;;;;5057725;28;20636;-81
2023/08/05 10:23:19;;;;;;;3.17;1.37;;;20.70;99.90;;;;;;5075197;28;20212;-80
2023/08/05 10:25:50;;;;;;;1.80;1.27;;;20.70;99.90;;;;;;5070661;28;20240;-79
2023/08/05 10:28:25;;;;;;;1.97;1.30;;;20.80;99.90;;;;;;5062614;28;20642;-80
2023/08/05 10:30:56;;;;;;;0.93;0.90;;;20.90;99.90;;;;;;5079821;28;20205;-80
2023/08/05 10:33:27;;;;;;;1.33;1.00;;;21.00;99.50;;;;;;5061868;28;20273;-80
2023/08/05 10:36:07;;;;;;;1.10;0.93;;;21.10;99.20;;;;;;5064154;28;20228;-80
2023/08/05 10:38:42;;;;;;;2.87;1.30;;;21.30;99.30;;;;;;5069005;28;20315;-79
2023/08/05 10:41:14;;;;;;;2.77;1.03;;;21.40;99.10;;;;;;5078749;28;20235;-79
2023/08/05 10:43:41;;;;;;;1.80;1.00;;;21.50;98.30;;;;;;5077265;28;20202;-79
2023/08/05 10:46:12;;;;;;;3.60;1.60;;;21.50;97.90;;;;;;5065396;28;20208;-79
2023/08/05 10:48:48;;;;;;;1.37;1.07;;;21.60;97.90;;;;;;5066478;28;20848;-79
2023/08/05 10:51:24;;;;;;;0.90;0.83;;;21.60;98.00;;;;;;5080104;28;20209;-78
2023/08/05 10:53:51;;;;;;;1.13;1.10;;;21.70;98.00;;;;;;5087790;28;20193;-79
2023/08/05 10:56:27;;;;;;;2.23;1.17;;;21.80;97.80;;;;;;5064316;28;20303;-79
2023/08/05 10:58:55;;;;;;;1.23;1.10;;;21.90;97.90;;;;;;5088087;28;20708;-78
2023/08/05 11:01:43;;;;;;;1.90;1.13;;;22.00;98.10;;;;;;5087402;28;20207;-78
2023/08/05 11:04:29;;;;;;;2.70;1.40;;;22.20;98.20;;;;;;5076894;28;20202;-79
2023/08/05 11:07:00;;;;;;;1.37;1.10;;;22.50;98.10;;;;;;5080172;28;20616;-78
2023/08/05 11:09:31;;;;;;;2.23;1.20;;;22.70;96.70;;;;;;5078079;28;20201;-79
2023/08/05 11:11:59;;;;;;;1.20;1.10;;;22.90;96.30;;;;;;5075829;28;20197;-79
2023/08/05 11:14:30;;;;;;;2.57;0.93;;;23.10;95.80;;;;;;5085804;28;20688;-78
2023/08/05 11:17:07;;;;;;;0.97;0.97;;;23.20;95.30;;;;;;5093142;28;20292;-78
2023/08/05 11:19:54;;;;;;;1.07;0.93;;;23.20;95.20;;;;;;5081162;28;20232;-79
2023/08/05 11:22:32;;;;;;;0.97;0.93;;;23.20;94.70;;;;;;5077179;28;20208;-79
2023/08/05 11:25:02;;;;;;;3.80;1.20;;;23.20;94.50;;;;;;5082087;28;20625;-79
2023/08/05 11:27:39;;;;;;;1.60;1.23;;;23.20;94.50;;;;;;5072913;28;20212;-79
2023/08/05 11:30:24;;;;;;;2.23;1.30;;;23.10;94.20;;;;;;5077924;28;20220;-79
2023/08/05 11:32:53;;;;;;;1.50;1.00;;;23.00;94.30;;;;;;5075645;28;20197;-79
2023/08/05 11:35:21;;;;;;;3.70;1.13;;;23.00;94.40;;;;;;5071345;28;20193;-79
2023/08/05 11:37:49;;;;;;;1.43;1.33;;;23.10;93.70;;;;;;5081002;28;20275;-79
2023/08/05 11:40:16;;;;;;;1.50;1.10;;;23.10;93.80;;;;;;5081074;28;20204;-79
2023/08/05 11:42:47;;;;;;;2.50;1.10;;;23.10;93.90;;;;;;5097957;28;20194;-79
2023/08/05 11:45:16;;;;;;;0.87;0.87;;;23.30;93.70;;;;;;5071741;28;20193;-79
2023/08/05 11:47:46;;;;;;;1.00;0.80;;;23.30;93.40;;;;;;5071688;28;20198;-78
2023/08/05 11:50:14;;;;;;;1.53;0.77;;;23.40;92.90;;;;;;5062012;28;20212;-79
2023/08/05 11:53:01;;;;;;;0.53;0.53;;;23.50;92.60;;;;;;5080110;28;20641;-79
2023/08/05 11:55:44;;;;;;;0.80;0.70;;;23.60;92.00;;;;;;5077073;28;20241;-78
2023/08/05 11:58:13;;;;;;;1.40;1.00;;;23.70;91.50;;;;;;5077968;28;20214;-79
2023/08/05 12:00:45;;;;;;;4.67;1.10;;;23.70;91.20;;;;;;5081623;28;20190;-79
2023/08/05 12:03:14;;;;;;;1.53;1.00;;;23.80;90.90;;;;;;5081385;28;20201;-79
2023/08/05 12:05:42;;;;;;;0.60;0.60;;;23.80;90.80;;;;;;5058166;28;20206;-78
2023/08/05 12:08:10;;;;;;;3.00;1.20;;;23.80;90.30;;;;;;5062710;28;20220;-79
2023/08/05 12:10:39;;;;;;;1.87;0.80;;;23.80;90.40;;;;;;5089960;28;20198;-79
2023/08/05 12:13:08;;;;;;;1.50;0.70;;;23.80;90.40;;;;;;5069342;28;20216;-79
2023/08/05 12:15:37;;;;;;;1.17;1.07;;;23.70;90.40;;;;;;5082788;28;20637;-79
2023/08/05 12:18:06;;;;;;;0.80;0.80;;;23.60;90.30;;;;;;5091523;28;20202;-79
2023/08/05 12:20:36;;;;;;;0.53;0.50;;;23.60;90.30;;;;;;5080367;28;20205;-79
2023/08/05 12:23:05;;;;;;;0.97;0.70;;;23.50;90.30;;;;;;5085858;28;20201;-79
2023/08/05 12:25:32;;;;;;;1.57;0.80;;;23.50;90.30;;;;;;5072225;28;20297;-78
2023/08/05 12:28:00;;;;;;;0.40;0.40;;;23.50;90.30;;;;;;5067843;28;20202;-79
2023/08/05 12:30:32;;;;;;;0.60;0.60;;;23.50;90.20;;;;;;5080050;28;20206;-79
2023/08/05 12:32:59;;;;;;;0.93;0.70;;;23.50;90.30;;;;;;5090368;28;20233;-79
2023/08/05 12:35:27;;;;;;;5.83;1.10;;;23.50;90.50;;;;;;5080402;28;20201;-79
2023/08/05 12:37:54;;;;;;;0.60;0.60;;;23.60;90.30;;;;;;5077984;28;20240;-78
2023/08/05 12:40:22;;;;;;;1.93;0.90;;;23.60;89.60;;;;;;5069065;28;20556;-78
2023/08/05 12:42:53;;;;;;;1.33;0.63;;;23.70;89.40;;;;;;5115777;28;20203;-78
2023/08/05 12:45:24;;;;;;;3.90;0.60;;;23.80;89.90;;;;;;5079680;28;20206;-78
2023/08/05 12:47:52;;;;;;;0.50;0.50;;;23.90;90.00;;;;;;5082634;28;20198;-78
2023/08/05 12:50:19;;;;;;;0.80;0.80;;;23.90;89.50;;;;;;5075174;28;20271;-79
2023/08/05 12:52:46;;;;;;;1.20;1.10;;;24.10;89.50;;;;;;5074487;28;20295;-79
2023/08/05 12:55:14;;;;;;;1.67;1.10;;;24.10;90.00;;;;;;5068578;28;20264;-79